sensor_id;sensor_type;location;lat;lon;timestamp;P1;P2;P0
47709;PMS7003;33473;51.640;5.892;2023-01-28T00:06:48;11.17;13.42;6.55
47709;PMS7003;33473;51.640;5.892;2023-01-28T00:20:08;11.05;13.31;6.77
47709;PMS7003;33473;51.640;5.892;2023-01-28T00:33:28;12.25;14.4;6.99
47709;PMS7003;33473;51.640;5.892;2023-01-28T00:46:47;10.09;12.44;5.9
47709;PMS7003;33473;51.640;5.892;2023-01-28T01:00:07;12.13;14.07;6.66
47709;PMS7003;33473;51.640;5.892;2023-01-28T01:13:27;12.73;14.83;6.77
47709;PMS7003;33473;51.640;5.892;2023-01-28T01:26:46;12.73;14.83;7.2
47709;PMS7003;33473;51.640;5.892;2023-01-28T01:40:06;12.61;14.72;7.31
47709;PMS7003;33473;51.640;5.892;2023-01-28T01:53:26;14.29;16.25;7.09
47709;PMS7003;33473;51.640;5.892;2023-01-28T02:06:45;14.05;15.81;8.08
47709;PMS7003;33473;51.640;5.892;2023-01-28T02:20:05;13.21;15.27;7.09
47709;PMS7003;33473;51.640;5.892;2023-01-28T02:33:25;15.25;17.12;7.64
47709;PMS7003;33473;51.640;5.892;2023-01-28T02:46:44;15.49;17.23;8.08
47709;PMS7003;33473;51.640;5.892;2023-01-28T03:00:04;15.37;17.12;8.29
47709;PMS7003;33473;51.640;5.892;2023-01-28T03:13:24;14.53;16.47;8.18
47709;PMS7003;33473;51.640;5.892;2023-01-28T03:26:43;15.85;17.67;8.51
47709;PMS7003;33473;51.640;5.892;2023-01-28T03:40:03;15.85;17.56;7.86
47709;PMS7003;33473;51.640;5.892;2023-01-28T03:53:23;13.09;15.05;7.53
47709;PMS7003;33473;51.640;5.892;2023-01-28T04:06:43;12.61;14.72;7.42
47709;PMS7003;33473;51.640;5.892;2023-01-28T04:20:02;13.81;15.81;7.42
47709;PMS7003;33473;51.640;5.892;2023-01-28T04:33:22;11.65;13.85;7.31
47709;PMS7003;33473;51.640;5.892;2023-01-28T04:46:42;10.57;12.87;6.44
47709;PMS7003;33473;51.640;5.892;2023-01-28T05:00:01;9.25;11.67;6.11
47709;PMS7003;33473;51.640;5.892;2023-01-28T05:13:21;9.37;11.67;6.0
47709;PMS7003;33473;51.640;5.892;2023-01-28T05:26:41;9.01;11.35;6.55
47709;PMS7003;33473;51.640;5.892;2023-01-28T05:40:00;11.17;13.42;7.09
47709;PMS7003;33473;51.640;5.892;2023-01-28T05:53:20;11.77;13.96;6.77
47709;PMS7003;33473;51.640;5.892;2023-01-28T06:06:40;11.53;13.74;6.55
47709;PMS7003;33473;51.640;5.892;2023-01-28T06:19:59;9.73;12.11;6.44
47709;PMS7003;33473;51.640;5.892;2023-01-28T06:33:19;11.29;12.33;6.77
47709;PMS7003;33473;51.640;5.892;2023-01-28T06:46:39;11.65;13.85;6.99
47709;PMS7003;33473;51.640;5.892;2023-01-28T06:59:58;11.41;13.53;6.55
47709;PMS7003;33473;51.640;5.892;2023-01-28T07:13:18;12.13;14.29;6.99
47709;PMS7003;33473;51.640;5.892;2023-01-28T07:26:38;12.25;14.4;7.2
47709;PMS7003;33473;51.640;5.892;2023-01-28T07:39:57;14.41;16.25;7.42
47709;PMS7003;33473;51.640;5.892;2023-01-28T07:53:17;17.17;17.89;7.53
47709;PMS7003;33473;51.640;5.892;2023-01-28T08:06:37;16.21;17.89;7.42
47709;PMS7003;33473;51.640;5.892;2023-01-28T08:19:56;14.77;16.69;7.2
47709;PMS7003;33473;51.640;5.892;2023-01-28T08:33:16;15.61;17.45;7.31
47709;PMS7003;33473;51.640;5.892;2023-01-28T08:46:36;18.25;19.41;8.73
47709;PMS7003;33473;51.640;5.892;2023-01-28T08:59:56;17.41;17.89;8.62
47709;PMS7003;33473;51.640;5.892;2023-01-28T09:13:15;14.65;16.58;7.53
47709;PMS7003;33473;51.640;5.892;2023-01-28T09:26:35;14.89;16.8;7.42
47709;PMS7003;33473;51.640;5.892;2023-01-28T09:39:55;14.41;16.36;7.86
47709;PMS7003;33473;51.640;5.892;2023-01-28T09:53:14;15.01;16.8;8.08
47709;PMS7003;33473;51.640;5.892;2023-01-28T10:06:34;15.01;16.9;8.18
47709;PMS7003;33473;51.640;5.892;2023-01-28T10:19:54;15.85;17.45;8.18
47709;PMS7003;33473;51.640;5.892;2023-01-28T10:33:13;15.97;17.67;8.62
47709;PMS7003;33473;51.640;5.892;2023-01-28T10:46:33;15.13;16.9;7.97
47709;PMS7003;33473;51.640;5.892;2023-01-28T10:59:53;15.97;17.67;8.08
47709;PMS7003;33473;51.640;5.892;2023-01-28T11:13:12;14.89;16.58;7.42
47709;PMS7003;33473;51.640;5.892;2023-01-28T11:26:32;16.09;17.78;9.06
47709;PMS7003;33473;51.640;5.892;2023-01-28T11:39:52;16.69;18.32;8.73
47709;PMS7003;33473;51.640;5.892;2023-01-28T11:53:11;16.09;17.78;9.17
47709;PMS7003;33473;51.640;5.892;2023-01-28T12:06:31;15.25;16.9;8.4
47709;PMS7003;33473;51.640;5.892;2023-01-28T12:19:51;12.97;15.05;7.53
47709;PMS7003;33473;51.640;5.892;2023-01-28T12:33:10;14.29;16.25;8.08
47709;PMS7003;33473;51.640;5.892;2023-01-28T12:46:30;15.37;16.58;8.62
47709;PMS7003;33473;51.640;5.892;2023-01-28T12:59:50;15.85;17.56;8.51
47709;PMS7003;33473;51.640;5.892;2023-01-28T13:13:09;15.01;16.9;8.62
47709;PMS7003;33473;51.640;5.892;2023-01-28T13:26:29;15.49;17.34;9.06
47709;PMS7003;33473;51.640;5.892;2023-01-28T13:39:49;13.93;15.92;8.73
47709;PMS7003;33473;51.640;5.892;2023-01-28T13:53:08;14.89;16.8;8.29
47709;PMS7003;33473;51.640;5.892;2023-01-28T14:06:28;15.37;17.23;8.18
47709;PMS7003;33473;51.640;5.892;2023-01-28T14:19:48;15.25;17.12;8.29
47709;PMS7003;33473;51.640;5.892;2023-01-28T14:33:07;15.97;17.67;8.95
47709;PMS7003;33473;51.640;5.892;2023-01-28T14:46:27;18.85;19.3;9.71
47709;PMS7003;33473;51.640;5.892;2023-01-28T14:59:47;17.41;18.76;9.06
47709;PMS7003;33473;51.640;5.892;2023-01-28T15:13:06;20.17;19.96;9.27
47709;PMS7003;33473;51.640;5.892;2023-01-28T15:26:26;18.01;18.98;8.84
47709;PMS7003;33473;51.640;5.892;2023-01-28T15:39:46;18.49;19.63;9.38
47709;PMS7003;33473;51.640;5.892;2023-01-28T15:53:05;20.29;20.17;9.71
47709;PMS7003;33473;51.640;5.892;2023-01-28T16:06:25;22.81;21.81;11.35
47709;PMS7003;33473;51.640;5.892;2023-01-28T16:19:45;22.33;21.59;10.04
47709;PMS7003;33473;51.640;5.892;2023-01-28T16:33:04;20.29;20.61;9.27
47709;PMS7003;33473;51.640;5.892;2023-01-28T16:46:24;20.77;21.16;10.26
47709;PMS7003;33473;51.640;5.892;2023-01-28T16:59:44;21.25;21.48;9.82
47709;PMS7003;33473;51.640;5.892;2023-01-28T17:13:03;22.21;21.59;10.47
47709;PMS7003;33473;51.640;5.892;2023-01-28T17:26:23;24.73;23.34;10.69
47709;PMS7003;33473;51.640;5.892;2023-01-28T17:39:43;29.05;25.84;12.33
47709;PMS7003;33473;51.640;5.892;2023-01-28T17:53:02;27.49;24.97;12.11
47709;PMS7003;33473;51.640;5.892;2023-01-28T18:06:22;27.01;24.86;11.67
47709;PMS7003;33473;51.640;5.892;2023-01-28T18:19:42;27.85;25.3;12.0
47709;PMS7003;33473;51.640;5.892;2023-01-28T18:33:02;28.21;25.52;11.78
47709;PMS7003;33473;51.640;5.892;2023-01-28T18:46:21;31.21;27.04;12.65
47709;PMS7003;33473;51.640;5.892;2023-01-28T18:59:41;29.53;25.84;12.44
47709;PMS7003;33473;51.640;5.892;2023-01-28T19:13:01;37.58;31.51;16.8
47709;PMS7003;33473;51.640;5.892;2023-01-28T19:26:20;33.01;27.59;13.42
47709;PMS7003;33473;51.640;5.892;2023-01-28T19:39:40;31.81;27.48;13.85
47709;PMS7003;33473;51.640;5.892;2023-01-28T19:53:00;33.98;28.79;13.74
47709;PMS7003;33473;51.640;5.892;2023-01-28T20:06:19;30.37;27.15;12.0
47709;PMS7003;33473;51.640;5.892;2023-01-28T20:19:39;31.57;27.8;13.09
47709;PMS7003;33473;51.640;5.892;2023-01-28T20:32:59;31.45;27.59;11.78
47709;PMS7003;33473;51.640;5.892;2023-01-28T20:46:18;28.57;26.06;11.89
47709;PMS7003;33473;51.640;5.892;2023-01-28T20:59:38;32.41;27.48;12.65
47709;PMS7003;33473;51.640;5.892;2023-01-28T21:12:58;33.98;29.55;14.51
47709;PMS7003;33473;51.640;5.892;2023-01-28T21:26:17;31.81;28.13;13.31
47709;PMS7003;33473;51.640;5.892;2023-01-28T21:39:37;32.41;28.46;13.09
47709;PMS7003;33473;51.640;5.892;2023-01-28T21:52:57;31.93;27.91;13.53
47709;PMS7003;33473;51.640;5.892;2023-01-28T22:06:16;32.77;28.46;13.96
47709;PMS7003;33473;51.640;5.892;2023-01-28T22:19:36;35.42;30.31;15.49
47709;PMS7003;33473;51.640;5.892;2023-01-28T22:32:56;36.98;31.29;16.36
47709;PMS7003;33473;51.640;5.892;2023-01-28T22:46:16;37.7;31.62;16.14
47709;PMS7003;33473;51.640;5.892;2023-01-28T22:59:35;38.54;32.38;16.25
47709;PMS7003;33473;51.640;5.892;2023-01-28T23:12:55;38.42;32.05;16.03
47709;PMS7003;33473;51.640;5.892;2023-01-28T23:26:15;37.7;31.62;15.6
47709;PMS7003;33473;51.640;5.892;2023-01-28T23:39:34;41.06;33.47;17.56
47709;PMS7003;33473;51.640;5.892;2023-01-28T23:52:54;37.94;31.84;17.23
